Flugplatz Erfurt

Bericht für EDDE

vom 19.01. um 00:20 UTC

Wind 3 kt aus 310°

Sichtweite 10 km oder mehr

gering bewölkt in 2300 ft

aufgebrochene Bewölkung in 3300 ft

Temperatur 1.0°C

Taupunkt -1.0°C

Luftfeuchtigkeit 86%

Luftdruck 1001 hPa

EDDE 190020Z 31003KT 9999 FEW023 BKN033 01/M01 Q1001

Prognose für EDDE

vom 18.01. um 23:00 UTC

Zwischen 00:00 UTC und 00:00 UTC

Wind 10 kt aus 240°

Sichtweite 10 km oder mehr

aufgebrochene Bewölkung in 3000 ft


Zwischen 07:00 UTC und 15:00 UTC zeitweise

Sichtweite 2500 m

Schnee

Regen

aufgebrochene Bewölkung in 800 ft

TAF EDDE 182300Z 1900/1924 24010KT 9999 BKN030 TEMPO 1907/1915 2500 SNRA BKN008
Impressum